Map

Track Data

SID SEASON NUMBER BASIN SUBBASIN NAME ISO_TIME NATURE LAT LON WMO_WIND WMO_PRES WMO_AGENCY TRACK_TYPE DIST2LAND LANDFALL IFLAG USA_AGENCY USA_ATCF_ID USA_LAT USA_LON USA_RECORD USA_STATUS USA_WIND USA_PRES USA_SSHS USA_R34_NE USA_R34_SE USA_R34_SW USA_R34_NW USA_R50_NE USA_R50_SE USA_R50_SW USA_R50_NW USA_R64_NE USA_R64_SE USA_R64_SW USA_R64_NW USA_POCI USA_ROCI USA_RMW USA_EYE TOKYO_LAT TOKYO_LON TOKYO_GRADE TOKYO_WIND TOKYO_PRES TOKYO_R50_DIR TOKYO_R50_LONG TOKYO_R50_SHORT TOKYO_R30_DIR TOKYO_R30_LONG TOKYO_R30_SHORT TOKYO_LAND CMA_LAT CMA_LON CMA_CAT CMA_WIND CMA_PRES HKO_LAT HKO_LON HKO_CAT HKO_WIND HKO_PRES NEWDELHI_LAT NEWDELHI_LON NEWDELHI_GRADE NEWDELHI_WIND NEWDELHI_PRES NEWDELHI_CI NEWDELHI_DP NEWDELHI_POCI REUNION_LAT REUNION_LON REUNION_TYPE REUNION_WIND REUNION_PRES REUNION_TNUM REUNION_CI REUNION_RMW REUNION_R34_NE REUNION_R34_SE REUNION_R34_SW REUNION_R34_NW REUNION_R50_NE REUNION_R50_SE REUNION_R50_SW REUNION_R50_NW REUNION_R64_NE REUNION_R64_SE REUNION_R64_SW REUNION_R64_NW BOM_LAT BOM_LON BOM_TYPE BOM_WIND BOM_PRES BOM_TNUM BOM_CI BOM_RMW BOM_R34_NE BOM_R34_SE BOM_R34_SW BOM_R34_NW BOM_R50_NE BOM_R50_SE BOM_R50_SW BOM_R50_NW BOM_R64_NE BOM_R64_SE BOM_R64_SW BOM_R64_NW BOM_ROCI BOM_POCI BOM_EYE BOM_POS_METHOD BOM_PRES_METHOD NADI_LAT NADI_LON NADI_CAT NADI_WIND NADI_PRES WELLINGTON_LAT WELLINGTON_LON WELLINGTON_WIND WELLINGTON_PRES DS824_LAT DS824_LON DS824_STAGE DS824_WIND DS824_PRES TD9636_LAT TD9636_LON TD9636_STAGE TD9636_WIND TD9636_PRES TD9635_LAT TD9635_LON TD9635_WIND TD9635_PRES TD9635_ROCI NEUMANN_LAT NEUMANN_LON NEUMANN_CLASS NEUMANN_WIND NEUMANN_PRES MLC_LAT MLC_LON MLC_CLASS MLC_WIND MLC_PRES USA_GUST BOM_GUST BOM_GUST_PER REUNION_GUST REUNION_GUST_PER USA_SEAHGT USA_SEARAD_NE USA_SEARAD_SE USA_SEARAD_SW USA_SEARAD_NW STORM_SPEED STORM_DIR
2012127S05127 2012 18 SI WA NOT_NAMED 2012-05-06 00:00:00 TS -5.00000 126.800 main 134 134 O_____________ jtwc_sh SH192012 -5.00000 126.800 TD 25 1004 -1 6 247
2012127S05127 2012 18 SI WA NOT_NAMED 2012-05-06 03:00:00 TS -5.12753 126.503 main 147 147 P_____________ SH192012 -5.12753 126.503 TD 25 1004 -1 5 233
2012127S05127 2012 18 SI WA NOT_NAMED 2012-05-06 06:00:00 TS -5.30000 126.400 main 171 171 O_____________ jtwc_sh SH192012 -5.30000 126.400 TD 25 1004 -1 1008 200 35 4 165
2012127S05127 2012 18 SI WA NOT_NAMED 2012-05-06 09:00:00 TS -5.54252 126.617 main 190 190 P_____________ SH192012 -5.54252 126.617 TD 27 1002 -1 1008 195 35 8 130
2012127S05127 2012 18 SI WA NOT_NAMED 2012-05-06 12:00:00 TS -5.80000 127.000 main 214 195 O_____________ jtwc_sh SH192012 -5.80000 127.000 TD 30 1000 -1 1008 190 35 9 124
2012127S05127 2012 18 SI WA NOT_NAMED 2012-05-06 15:00:00 TS -6.02247 127.335 main 198 189 P_____________ SH192012 -6.02247 127.335 TD 30 1000 -1 1008 185 32 8 120
2012127S05127 2012 18 SI WA NOT_NAMED 2012-05-06 18:00:00 TS -6.20000 127.700 main 195 195 O_____________ jtwc_sh SH192012 -6.20000 127.700 TD 30 1000 -1 1008 180 30 8 111
2012127S05127 2012 18 SI WA NOT_NAMED 2012-05-06 21:00:00 TS -6.29993 128.070 main 212 212 P_____________ SH192012 -6.29993 128.070 TD 30 1000 -1 1008 180 30 8 104
2012127S05127 2012 18 SI WA NOT_NAMED 2012-05-07 00:00:00 TS -6.40000 128.500 main 237 237 O_____________ jtwc_sh SH192012 -6.40000 128.500 TD 30 1000 -1 1008 180 30 10 105
2012127S05127 2012 18 SI WA NOT_NAMED 2012-05-07 03:00:00 TS -6.57016 129.087 main 252 193 P_____________ SH192012 -6.57016 129.087 TD 30 1000 -1 1008 180 30 12 110
2012127S05127 2012 18 SI WA NOT_NAMED 2012-05-07 06:00:00 TS -6.80000 129.600 main 193 160 O_____________ jtwc_sh SH192012 -6.80000 129.600 TD 30 1000 -1 1008 180 30 9 125
2012127S05127 2012 18 SI WA NOT_NAMED 2012-05-07 09:00:00 TS -7.09239 129.848 main 160 139 P_____________ SH192012 -7.09239 129.848 TD 27 1002 -1 1008 175 32 7 154
2012127S05127 2012 18 SI WA NOT_NAMED 2012-05-07 12:00:00 TS -7.40000 129.900 main 139 134 O_____________ jtwc_sh SH192012 -7.40000 129.900 TD 25 1004 -1 1008 170 35 6 183
2012127S05127 2012 18 SI WA NOT_NAMED 2012-05-07 15:00:00 TS -7.68000 129.838 main 143 143 P_____________ SH192012 -7.68000 129.838 TD 25 1004 -1 5 202
2012127S05127 2012 18 SI WA NOT_NAMED 2012-05-07 18:00:00 TS -7.90000 129.700 main 154 154 O_____________ jtwc_sh SH192012 -7.90000 129.700 TD 25 1004 -1 4 215
2012127S05127 2012 18 SI WA NOT_NAMED 2012-05-07 21:00:00 TS -8.01500 129.600 main 165 165 P_____________ SH192012 -8.01500 129.600 TD 22 1005 -1 3 225
2012127S05127 2012 18 SI WA NOT_NAMED 2012-05-08 00:00:00 NR -8.10000 129.500 main 176 176 O_____________ jtwc_sh SH192012 -8.10000 129.500 DB 20 1007 -3 3 218
2012127S05127 2012 18 SI WA NOT_NAMED 2012-05-08 03:00:00 NR -8.24247 129.422 main 188 188 P_____________ SH192012 -8.24247 129.422 DB 20 1007 -3 4 213
2012127S05127 2012 18 SI WA NOT_NAMED 2012-05-08 06:00:00 NR -8.40000 129.300 main 203 198 O_____________ jtwc_sh SH192012 -8.40000 129.300 DB 20 1007 -3 5 228
2012127S05127 2012 18 SI WA NOT_NAMED 2012-05-08 09:00:00 NR -8.55002 129.073 main 199 168 P_____________ SH192012 -8.55002 129.073 DB 20 1007 -3 6 239
2012127S05127 2012 18 SI WA NOT_NAMED 2012-05-08 12:00:00 NR -8.70000 128.800 main 168 149 O_____________ jtwc_sh SH192012 -8.70000 128.800 DB 20 1007 -3 6 240
2012127S05127 2012 18 SI WA NOT_NAMED 2012-05-08 15:00:00 NR -8.85750 128.543 main 143 128 P_____________ SH192012 -8.85750 128.543 DB 20 1007 -3 6 239
2012127S05127 2012 18 SI WA NOT_NAMED 2012-05-08 18:00:00 NR -9.00000 128.300 main 128 117 O_____________ jtwc_sh SH192012 -9.00000 128.300 DB 20 1007 -3 5 240
2012127S05127 2012 18 SI WA NOT_NAMED 2012-05-08 21:00:00 NR -9.11497 128.092 main 117 109 P_____________ SH192012 -9.11497 128.092 DB 20 1007 -3 4 243
2012127S05127 2012 18 SI WA NOT_NAMED 2012-05-09 00:00:00 NR -9.20000 127.900 main 109 94 O_____________ jtwc_sh SH192012 -9.20000 127.900 DB 20 1007 -3 4 250
2012127S05127 2012 18 SI WA NOT_NAMED 2012-05-09 03:00:00 NR -9.25753 127.703 main 102 86 P_____________ SH192012 -9.25753 127.703 DB 20 1007 -3 4 256
2012127S05127 2012 18 SI WA NOT_NAMED 2012-05-09 06:00:00 NR -9.30000 127.500 main 86 O_____________ jtwc_sh SH192012 -9.30000 127.500 DB 20 1007 -3 4 258

About IBTrACS Database

This database is a web-friendly format of International Best Track Archive for Climate Stewardship (IBTrACS), a global best track data archive curated by NOAA dating back to 1842.

Updated: 2021-10-19